createdAt,value
2018-08-30T00:00:08.558Z,20.4
2018-08-30T00:01:09.938Z,20.3
2018-08-30T00:02:11.305Z,20.3
2018-08-30T00:03:12.688Z,20.3
2018-08-30T00:04:14.051Z,20.3
2018-08-30T00:05:15.413Z,20.3
2018-08-30T00:06:16.777Z,20.3
2018-08-30T00:07:18.148Z,20.3
2018-08-30T00:08:19.514Z,20.3
2018-08-30T00:09:20.888Z,20.2
2018-08-30T00:10:22.256Z,20.3
2018-08-30T00:11:23.602Z,20.2
2018-08-30T00:12:24.977Z,20.2
2018-08-30T00:13:26.341Z,20.2
2018-08-30T00:14:27.703Z,20.2
2018-08-30T00:15:29.056Z,20.2
2018-08-30T00:16:30.488Z,20.2
2018-08-30T00:17:31.850Z,20.2
2018-08-30T00:18:33.218Z,20.2
2018-08-30T00:19:34.583Z,20.2
2018-08-30T00:20:35.947Z,20.2
2018-08-30T00:21:37.308Z,20.2
2018-08-30T00:22:38.671Z,20.2
2018-08-30T00:23:40.022Z,20.2
2018-08-30T00:24:41.383Z,20.2
2018-08-30T00:25:42.742Z,20.2
2018-08-30T00:26:44.113Z,20.2
2018-08-30T00:27:45.476Z,20.2
2018-08-30T00:28:46.833Z,20.3
2018-08-30T00:29:48.193Z,20.2
2018-08-30T00:30:49.556Z,20.2
2018-08-30T00:31:50.940Z,20.1
2018-08-30T00:32:52.301Z,20.2
2018-08-30T00:33:53.677Z,20.1
2018-08-30T00:34:55.029Z,20.1
2018-08-30T00:35:56.405Z,20.1
2018-08-30T00:36:57.764Z,20.1
2018-08-30T00:37:59.125Z,20.1
2018-08-30T00:39:00.497Z,20.1
2018-08-30T00:40:01.859Z,20.1
2018-08-30T00:41:03.218Z,20.0
2018-08-30T00:42:04.588Z,20.1
2018-08-30T00:43:05.961Z,20.1
2018-08-30T00:44:07.322Z,20.1
2018-08-30T00:45:08.676Z,20.0
2018-08-30T00:46:10.044Z,20.1
2018-08-30T00:47:11.407Z,20.0
2018-08-30T00:48:12.771Z,20.1
2018-08-30T00:49:14.133Z,20.1
2018-08-30T00:50:15.499Z,20.0
2018-08-30T00:51:16.853Z,20.1
2018-08-30T00:52:18.232Z,20.1
2018-08-30T00:53:19.591Z,20.2
2018-08-30T00:54:20.961Z,20.1
2018-08-30T00:55:22.316Z,20.1
2018-08-30T00:56:23.686Z,20.0
2018-08-30T00:57:25.046Z,20.1
2018-08-30T00:58:26.409Z,20.1
2018-08-30T00:59:27.762Z,20.0
2018-08-30T01:00:29.128Z,20.0
2018-08-30T01:01:30.502Z,20.0
2018-08-30T01:02:31.854Z,20.0
2018-08-30T01:03:33.214Z,20.0
2018-08-30T01:04:34.572Z,20.0
2018-08-30T01:05:35.966Z,20.0
2018-08-30T01:06:37.354Z,19.9
2018-08-30T01:07:38.701Z,20.0
2018-08-30T01:08:40.071Z,19.9
2018-08-30T01:09:41.432Z,20.0
2018-08-30T01:10:42.792Z,19.9
2018-08-30T01:11:44.156Z,20.0
2018-08-30T01:12:45.533Z,19.9
2018-08-30T01:13:46.903Z,20.0
2018-08-30T01:14:48.278Z,19.9
2018-08-30T01:15:49.647Z,19.9
2018-08-30T01:16:51.013Z,20.0
2018-08-30T01:17:52.388Z,19.9
2018-08-30T01:18:53.743Z,19.9
2018-08-30T01:19:55.120Z,20.0
2018-08-30T01:20:56.478Z,19.9
2018-08-30T01:21:57.843Z,19.9
2018-08-30T01:22:59.199Z,19.9
2018-08-30T01:24:00.573Z,19.9
2018-08-30T01:25:01.942Z,19.9
2018-08-30T01:26:03.307Z,19.9
2018-08-30T01:27:04.659Z,20.0
2018-08-30T01:28:06.023Z,20.0
2018-08-30T01:29:07.382Z,19.9
2018-08-30T01:30:08.751Z,20.0
2018-08-30T01:31:10.109Z,20.0
2018-08-30T01:32:11.469Z,20.0
2018-08-30T01:33:12.840Z,20.0
2018-08-30T01:34:14.196Z,19.9
2018-08-30T01:35:15.555Z,20.0
2018-08-30T01:36:16.916Z,19.9
2018-08-30T01:37:18.287Z,19.9
2018-08-30T01:38:19.644Z,19.9
2018-08-30T01:39:20.999Z,19.9
2018-08-30T01:40:22.393Z,19.9
2018-08-30T01:41:23.798Z,19.9
2018-08-30T01:42:25.249Z,19.9
2018-08-30T01:43:26.745Z,19.8
2018-08-30T01:44:28.077Z,19.8
2018-08-30T01:45:29.446Z,19.8
2018-08-30T01:46:30.817Z,19.8
2018-08-30T01:47:32.172Z,19.9
2018-08-30T01:48:33.527Z,19.9
2018-08-30T01:49:34.897Z,19.8
2018-08-30T01:50:36.262Z,19.8
2018-08-30T01:51:37.633Z,19.8
2018-08-30T01:52:38.992Z,19.8
2018-08-30T01:53:40.358Z,19.8
2018-08-30T01:54:41.719Z,19.7
2018-08-30T01:55:43.072Z,19.8
2018-08-30T01:56:44.439Z,19.8
2018-08-30T01:57:45.804Z,19.7
2018-08-30T01:58:47.171Z,19.7
2018-08-30T01:59:48.592Z,19.7
2018-08-30T02:00:49.959Z,19.7
2018-08-30T02:01:51.308Z,19.7
2018-08-30T02:02:52.688Z,19.7
2018-08-30T02:03:54.042Z,19.7
2018-08-30T02:04:55.407Z,19.6
2018-08-30T02:05:56.774Z,19.6
2018-08-30T02:06:58.139Z,19.6
2018-08-30T02:07:59.517Z,19.6
2018-08-30T02:09:00.881Z,19.7
2018-08-30T02:10:02.242Z,19.7
2018-08-30T02:11:03.620Z,19.6
2018-08-30T02:12:04.985Z,19.6
2018-08-30T02:13:06.350Z,19.6
2018-08-30T02:14:07.717Z,19.6
2018-08-30T02:15:09.074Z,19.6
2018-08-30T02:16:10.428Z,19.6
2018-08-30T02:17:11.790Z,19.7
2018-08-30T02:18:13.157Z,19.6
2018-08-30T02:19:14.645Z,19.6
2018-08-30T02:20:16.015Z,19.6
2018-08-30T02:21:17.380Z,19.6
2018-08-30T02:22:18.752Z,19.6
2018-08-30T02:23:20.123Z,19.6
2018-08-30T02:24:21.478Z,19.6
2018-08-30T02:25:22.836Z,19.6
2018-08-30T02:26:24.225Z,19.6
2018-08-30T02:27:25.570Z,19.6
2018-08-30T02:28:26.943Z,19.6
2018-08-30T02:29:28.303Z,19.5
2018-08-30T02:30:29.673Z,19.6
2018-08-30T02:31:31.021Z,19.5
2018-08-30T02:32:32.393Z,19.6
2018-08-30T02:33:33.755Z,19.6
2018-08-30T02:34:35.161Z,19.6
2018-08-30T02:35:36.498Z,19.5
2018-08-30T02:36:37.844Z,19.6
2018-08-30T02:37:39.210Z,19.6
2018-08-30T02:38:40.559Z,19.6
2018-08-30T02:39:41.923Z,19.5
2018-08-30T02:40:43.329Z,19.6
2018-08-30T02:41:44.690Z,19.6
2018-08-30T02:42:46.055Z,19.5
2018-08-30T02:43:47.418Z,19.5
2018-08-30T02:44:48.784Z,19.5
2018-08-30T02:45:50.178Z,19.5
2018-08-30T02:46:51.529Z,19.4
2018-08-30T02:47:52.888Z,19.5
2018-08-30T02:48:54.293Z,19.5
2018-08-30T02:49:55.670Z,19.4
2018-08-30T02:50:57.030Z,19.4
2018-08-30T02:51:58.419Z,19.4
2018-08-30T02:52:59.778Z,19.4
2018-08-30T02:54:01.143Z,19.5
2018-08-30T02:55:02.500Z,19.4
2018-08-30T02:56:03.861Z,19.4
2018-08-30T02:57:05.231Z,19.4
2018-08-30T02:58:06.591Z,19.4
2018-08-30T02:59:07.955Z,19.4
2018-08-30T03:00:09.316Z,19.4
2018-08-30T03:01:10.673Z,19.4
2018-08-30T03:02:12.036Z,19.4
2018-08-30T03:03:13.408Z,19.4
2018-08-30T03:04:14.763Z,19.3
2018-08-30T03:05:16.125Z,19.3
2018-08-30T03:06:17.480Z,19.4
2018-08-30T03:07:18.840Z,19.3
2018-08-30T03:08:20.216Z,19.3
2018-08-30T03:09:21.576Z,19.3
2018-08-30T03:10:22.940Z,19.3
2018-08-30T03:11:24.306Z,19.2
2018-08-30T03:12:25.659Z,19.4
2018-08-30T03:13:27.025Z,19.4
2018-08-30T03:14:28.386Z,19.3
2018-08-30T03:15:29.745Z,19.2
2018-08-30T03:16:31.134Z,19.3
2018-08-30T03:17:32.495Z,19.2
2018-08-30T03:18:33.859Z,19.3
2018-08-30T03:19:35.224Z,19.3
2018-08-30T03:20:36.583Z,19.3
2018-08-30T03:21:37.944Z,19.3
2018-08-30T03:22:39.315Z,19.3
2018-08-30T03:23:40.665Z,19.3
2018-08-30T03:24:42.034Z,19.3
2018-08-30T03:25:43.416Z,19.3
2018-08-30T03:26:44.775Z,19.2
2018-08-30T03:27:46.141Z,19.3
2018-08-30T03:28:48.054Z,19.2
2018-08-30T03:29:49.413Z,19.3
2018-08-30T03:30:50.945Z,19.2
2018-08-30T03:31:52.278Z,19.2
2018-08-30T03:32:53.644Z,19.2
2018-08-30T03:33:54.999Z,19.2
2018-08-30T03:34:56.366Z,19.2
2018-08-30T03:35:57.714Z,19.2
2018-08-30T03:36:59.084Z,19.2
2018-08-30T03:38:00.444Z,19.3
2018-08-30T03:39:01.799Z,19.2
2018-08-30T03:40:03.170Z,19.1
2018-08-30T03:41:04.529Z,19.1
2018-08-30T03:42:05.881Z,19.2
2018-08-30T03:43:07.248Z,19.1
2018-08-30T03:44:08.600Z,19.1
2018-08-30T03:45:09.968Z,19.1
2018-08-30T03:46:11.325Z,19.2
2018-08-30T03:47:12.691Z,19.1
2018-08-30T03:48:14.054Z,19.1
2018-08-30T03:49:15.414Z,19.1
2018-08-30T03:50:16.793Z,19.1
2018-08-30T03:51:18.151Z,19.1
2018-08-30T03:52:19.521Z,19.1
2018-08-30T03:53:20.885Z,19.1
2018-08-30T03:54:22.236Z,19.1
2018-08-30T03:55:23.605Z,19.1
2018-08-30T03:56:24.958Z,19.2
2018-08-30T03:57:26.330Z,19.0
2018-08-30T03:58:27.685Z,19.0
2018-08-30T03:59:29.059Z,19.0
2018-08-30T04:00:30.414Z,19.0
2018-08-30T04:01:31.790Z,19.0
2018-08-30T04:02:33.145Z,19.0
2018-08-30T04:03:34.505Z,19.1
2018-08-30T04:04:35.908Z,19.0
2018-08-30T04:05:37.285Z,19.0
2018-08-30T04:06:38.658Z,19.0
2018-08-30T04:07:40.010Z,19.0
2018-08-30T04:08:41.376Z,19.0
2018-08-30T04:09:42.740Z,18.9
2018-08-30T04:10:44.100Z,19.0
2018-08-30T04:11:45.458Z,18.9
2018-08-30T04:12:46.815Z,19.0
2018-08-30T04:13:48.171Z,18.9
2018-08-30T04:14:49.544Z,18.9
2018-08-30T04:15:50.901Z,18.9
2018-08-30T04:16:52.304Z,18.9
2018-08-30T04:17:53.619Z,18.9
2018-08-30T04:18:54.990Z,18.9
2018-08-30T04:19:56.346Z,18.9
2018-08-30T04:20:57.715Z,18.9
2018-08-30T04:21:59.140Z,18.9
2018-08-30T04:23:00.450Z,18.9
2018-08-30T04:24:01.822Z,18.9
2018-08-30T04:25:03.184Z,18.9
2018-08-30T04:26:04.531Z,18.9
2018-08-30T04:27:05.955Z,18.8
2018-08-30T04:28:07.265Z,18.9
2018-08-30T04:29:08.631Z,18.8
2018-08-30T04:30:09.991Z,18.8
2018-08-30T04:31:11.351Z,18.8
2018-08-30T04:32:12.718Z,18.8
2018-08-30T04:33:14.062Z,18.8
2018-08-30T04:34:15.432Z,18.8
2018-08-30T04:35:16.801Z,18.8
2018-08-30T04:36:18.166Z,18.8
2018-08-30T04:37:19.536Z,18.9
2018-08-30T04:38:20.896Z,18.8
2018-08-30T04:39:22.264Z,18.7
2018-08-30T04:40:23.634Z,18.7
2018-08-30T04:41:25.000Z,18.7
2018-08-30T04:42:26.467Z,18.7
2018-08-30T04:43:27.744Z,18.8
2018-08-30T04:44:29.115Z,18.8
2018-08-30T04:45:30.477Z,18.8
2018-08-30T04:46:47.225Z,18.7
2018-08-30T04:47:48.617Z,18.7
2018-08-30T04:49:17.787Z,18.7
2018-08-30T04:50:22.176Z,18.7
2018-08-30T04:51:23.506Z,18.7
2018-08-30T04:52:24.880Z,18.7
2018-08-30T04:53:26.257Z,18.7
2018-08-30T04:54:27.619Z,18.7
2018-08-30T04:55:28.983Z,18.7
2018-08-30T04:56:30.364Z,18.6
2018-08-30T04:57:31.720Z,18.7
2018-08-30T04:58:33.080Z,18.7
2018-08-30T04:59:34.446Z,18.6
2018-08-30T05:00:35.809Z,18.7
2018-08-30T05:01:37.184Z,18.6
2018-08-30T05:02:38.535Z,18.6
2018-08-30T05:03:39.899Z,18.6
2018-08-30T05:04:41.266Z,18.6
2018-08-30T05:05:42.635Z,18.6
2018-08-30T05:06:44.000Z,18.6
2018-08-30T05:07:45.372Z,18.6
2018-08-30T05:08:46.740Z,18.6
2018-08-30T05:09:48.109Z,18.6
2018-08-30T05:10:49.456Z,18.6
2018-08-30T05:11:50.820Z,18.6
2018-08-30T05:12:52.211Z,18.5
2018-08-30T05:13:53.583Z,18.6
2018-08-30T05:14:54.940Z,18.5
2018-08-30T05:15:56.315Z,18.6
2018-08-30T05:16:57.670Z,18.5
2018-08-30T05:17:59.036Z,18.5
2018-08-30T05:19:00.400Z,18.6
2018-08-30T05:20:01.767Z,18.5
2018-08-30T05:21:03.127Z,18.6
2018-08-30T05:22:04.523Z,18.5
2018-08-30T05:23:05.957Z,18.5
2018-08-30T05:24:07.257Z,18.5
2018-08-30T05:25:08.631Z,18.4
2018-08-30T05:26:10.003Z,18.6
2018-08-30T05:27:11.369Z,18.5
2018-08-30T05:28:12.742Z,18.5
2018-08-30T05:29:14.103Z,18.5
2018-08-30T05:30:15.472Z,18.6
2018-08-30T05:31:16.841Z,18.5
2018-08-30T05:32:18.218Z,18.4
2018-08-30T05:33:20.172Z,18.4
2018-08-30T05:34:21.542Z,18.5
2018-08-30T05:35:22.906Z,18.5
2018-08-30T05:36:24.260Z,18.5
2018-08-30T05:37:25.630Z,18.4
2018-08-30T05:38:27.007Z,18.4
2018-08-30T05:39:28.369Z,18.5
2018-08-30T05:40:29.741Z,18.5
2018-08-30T05:41:31.112Z,18.5
2018-08-30T05:42:32.503Z,18.6
2018-08-30T05:43:33.877Z,18.6
2018-08-30T05:44:35.309Z,18.6
2018-08-30T05:45:36.620Z,18.5
2018-08-30T05:46:37.988Z,18.6
2018-08-30T05:47:39.363Z,18.6
2018-08-30T05:48:40.731Z,18.6
2018-08-30T05:49:42.108Z,18.5
2018-08-30T05:50:43.479Z,18.6
2018-08-30T05:51:44.895Z,18.5
2018-08-30T05:52:46.272Z,18.6
2018-08-30T05:53:47.643Z,18.6
2018-08-30T05:54:49.019Z,18.6
2018-08-30T05:55:50.381Z,18.4
2018-08-30T05:56:51.785Z,18.6
2018-08-30T05:57:53.126Z,18.5
2018-08-30T05:58:54.488Z,18.6
2018-08-30T05:59:55.858Z,18.6
2018-08-30T06:00:57.222Z,18.5
2018-08-30T06:01:58.587Z,18.5
2018-08-30T06:03:00.109Z,18.5
2018-08-30T06:04:01.452Z,18.5
2018-08-30T06:05:02.817Z,18.6
2018-08-30T06:06:04.177Z,18.5
2018-08-30T06:07:05.584Z,18.6
2018-08-30T06:08:07.062Z,18.6
2018-08-30T06:09:08.442Z,18.6
2018-08-30T06:10:09.812Z,18.6
2018-08-30T06:11:11.173Z,18.5
2018-08-30T06:12:12.545Z,18.6
2018-08-30T06:13:13.990Z,18.6
2018-08-30T06:14:15.255Z,18.6
2018-08-30T06:15:16.611Z,18.7
2018-08-30T06:16:17.998Z,18.6
2018-08-30T06:17:19.378Z,18.7
2018-08-30T06:18:20.756Z,18.6
2018-08-30T06:19:22.133Z,18.7
2018-08-30T06:20:23.499Z,18.7
2018-08-30T06:21:24.872Z,18.7
2018-08-30T06:22:26.258Z,18.6
2018-08-30T06:23:27.612Z,18.7
2018-08-30T06:24:28.991Z,18.7
2018-08-30T06:25:30.361Z,18.7
2018-08-30T06:26:31.732Z,18.7
2018-08-30T06:27:33.093Z,18.7
2018-08-30T06:28:34.463Z,18.7
2018-08-30T06:29:35.834Z,18.8
2018-08-30T06:30:37.202Z,18.8
2018-08-30T06:31:38.583Z,18.9
2018-08-30T06:32:39.988Z,18.9
2018-08-30T06:33:41.322Z,18.9
2018-08-30T06:34:42.692Z,18.9
2018-08-30T06:35:44.063Z,18.9
2018-08-30T06:36:45.430Z,18.9
2018-08-30T06:37:46.809Z,19.0
2018-08-30T06:38:48.283Z,19.0
2018-08-30T06:39:49.513Z,19.1
2018-08-30T06:40:50.913Z,19.1
2018-08-30T06:41:52.306Z,19.1
2018-08-30T06:42:53.676Z,19.1
2018-08-30T06:43:55.056Z,19.1
2018-08-30T06:44:56.428Z,19.2
2018-08-30T06:45:57.801Z,19.2
2018-08-30T06:46:59.184Z,19.4
2018-08-30T06:48:00.551Z,19.5
2018-08-30T06:49:01.986Z,19.6
2018-08-30T06:50:03.296Z,19.7
2018-08-30T06:51:04.664Z,19.7
2018-08-30T06:52:06.033Z,19.8
2018-08-30T06:53:07.412Z,19.8
2018-08-30T06:54:08.795Z,19.9
2018-08-30T06:55:10.162Z,20.1
2018-08-30T06:56:11.540Z,20.3
2018-08-30T06:57:12.907Z,20.4
2018-08-30T06:58:14.279Z,20.5
2018-08-30T06:59:15.657Z,20.5
2018-08-30T07:00:17.687Z,20.5
2018-08-30T07:01:18.354Z,20.5
2018-08-30T07:02:19.734Z,20.6
2018-08-30T07:03:21.146Z,20.6
2018-08-30T07:04:22.548Z,20.7
2018-08-30T07:05:23.864Z,20.6
2018-08-30T07:06:25.231Z,20.7
2018-08-30T07:07:26.603Z,20.6
2018-08-30T07:08:27.983Z,20.6
2018-08-30T07:09:29.381Z,20.4
2018-08-30T07:10:30.754Z,20.4
2018-08-30T07:11:32.117Z,20.3
2018-08-30T07:12:33.493Z,20.2
2018-08-30T07:13:34.872Z,20.2
2018-08-30T07:14:36.264Z,20.1
2018-08-30T07:20:49.681Z,19.8
2018-08-30T07:21:51.057Z,19.8
2018-08-30T07:22:52.453Z,19.8
2018-08-30T07:23:54.389Z,19.7
2018-08-30T07:24:55.782Z,19.7
2018-08-30T07:25:57.165Z,19.6
2018-08-30T07:26:59.061Z,19.6
2018-08-30T07:28:40.092Z,19.5
2018-08-30T07:29:41.377Z,19.5
2018-08-30T07:31:02.854Z,19.5
2018-08-30T07:32:04.235Z,19.6
2018-08-30T07:33:05.608Z,19.6
2018-08-30T07:34:07.034Z,19.6
2018-08-30T07:35:08.407Z,19.7
2018-08-30T07:36:09.688Z,19.7
2018-08-30T07:37:11.058Z,19.8
2018-08-30T07:38:12.449Z,19.9
2018-08-30T07:39:13.798Z,20.0
2018-08-30T07:40:15.166Z,19.9
2018-08-30T07:41:16.564Z,19.9
2018-08-30T07:42:17.937Z,20.0
2018-08-30T07:43:19.314Z,19.9
2018-08-30T07:44:20.864Z,20.0
2018-08-30T07:45:22.090Z,19.8
2018-08-30T07:46:23.498Z,19.8
2018-08-30T07:47:24.888Z,19.7
2018-08-30T07:48:26.254Z,19.6
2018-08-30T07:49:27.660Z,19.6
2018-08-30T07:50:29.059Z,19.5
2018-08-30T07:51:30.413Z,19.5
2018-08-30T07:52:31.816Z,19.5
2018-08-30T07:53:33.229Z,19.5
2018-08-30T07:54:34.719Z,19.5
2018-08-30T07:55:35.960Z,19.3
2018-08-30T07:56:37.349Z,19.3
2018-08-30T07:57:38.742Z,19.3
2018-08-30T07:58:40.130Z,19.3
2018-08-30T07:59:41.544Z,19.3
2018-08-30T08:00:42.939Z,19.3
2018-08-30T08:01:44.313Z,19.4
2018-08-30T08:02:45.709Z,19.4
2018-08-30T08:03:47.147Z,19.4
2018-08-30T08:04:48.582Z,19.4
2018-08-30T08:05:49.986Z,19.2
2018-08-30T08:06:51.332Z,19.2
2018-08-30T08:07:52.715Z,19.3
2018-08-30T08:08:54.091Z,19.2
2018-08-30T08:09:55.463Z,19.3
2018-08-30T08:10:56.844Z,19.3
2018-08-30T08:11:58.262Z,19.4
2018-08-30T08:12:59.597Z,19.4
2018-08-30T08:14:00.968Z,19.5
2018-08-30T08:15:02.360Z,19.6
2018-08-30T08:16:03.733Z,19.6
2018-08-30T08:17:05.108Z,19.6
2018-08-30T08:18:06.480Z,19.7
2018-08-30T08:19:07.933Z,19.7
2018-08-30T08:20:09.187Z,19.7
2018-08-30T08:21:10.560Z,19.8
2018-08-30T08:22:11.954Z,19.8
2018-08-30T08:23:13.325Z,19.9
2018-08-30T08:24:14.690Z,19.8
2018-08-30T08:25:16.119Z,19.8
2018-08-30T08:26:17.449Z,19.8
2018-08-30T08:27:18.819Z,20.1
2018-08-30T08:28:20.200Z,20.2
2018-08-30T08:29:21.584Z,20.3
2018-08-30T08:30:22.964Z,20.6
2018-08-30T08:31:24.384Z,20.7
2018-08-30T08:32:25.679Z,20.7
2018-08-30T08:33:27.059Z,20.7
2018-08-30T08:34:28.440Z,20.7
2018-08-30T08:35:29.815Z,20.7
2018-08-30T08:36:31.201Z,20.7
2018-08-30T08:37:32.607Z,20.7
2018-08-30T08:38:33.996Z,20.7
2018-08-30T08:39:35.369Z,20.8
2018-08-30T08:40:36.744Z,20.7
2018-08-30T08:41:38.138Z,20.7
2018-08-30T08:42:39.530Z,20.8
2018-08-30T08:43:40.898Z,20.8
2018-08-30T08:44:42.275Z,20.7
2018-08-30T08:45:43.654Z,20.8
2018-08-30T08:46:45.023Z,20.9
2018-08-30T08:47:46.484Z,20.9
2018-08-30T08:48:47.735Z,20.9
2018-08-30T08:49:49.119Z,21.0
2018-08-30T08:50:50.493Z,20.9
2018-08-30T08:51:51.893Z,20.9
2018-08-30T08:52:53.266Z,20.8
2018-08-30T08:53:54.669Z,20.8
2018-08-30T08:54:55.978Z,20.8
2018-08-30T08:55:57.368Z,20.8
2018-08-30T08:56:58.739Z,20.8
2018-08-30T08:58:00.115Z,21.0
2018-08-30T08:59:01.693Z,20.9
2018-08-30T09:00:02.864Z,21.0
2018-08-30T09:01:04.239Z,21.0
2018-08-30T09:02:05.784Z,21.1
2018-08-30T09:03:07.160Z,21.2
2018-08-30T09:04:08.539Z,21.3
2018-08-30T09:05:09.911Z,21.3
2018-08-30T09:06:11.285Z,21.1
2018-08-30T09:07:12.709Z,21.2
2018-08-30T09:08:14.041Z,21.2
2018-08-30T09:09:15.424Z,21.3
2018-08-30T09:10:16.831Z,21.4
2018-08-30T09:11:18.264Z,21.4
2018-08-30T09:12:19.636Z,21.5
2018-08-30T09:13:21.013Z,21.4
2018-08-30T09:14:22.453Z,21.4
2018-08-30T09:15:23.772Z,21.4
2018-08-30T09:16:25.149Z,21.4
2018-08-30T09:17:26.523Z,21.3
2018-08-30T09:18:27.945Z,21.2
2018-08-30T09:19:29.251Z,21.1
2018-08-30T09:20:30.636Z,20.9
2018-08-30T09:21:32.083Z,20.8
2018-08-30T09:22:33.490Z,20.8
2018-08-30T09:23:34.895Z,20.7
2018-08-30T09:24:36.277Z,20.6
2018-08-30T09:25:37.653Z,20.6
2018-08-30T09:26:39.076Z,20.7
2018-08-30T09:27:40.411Z,20.5
2018-08-30T09:28:41.786Z,20.4
2018-08-30T09:29:43.221Z,20.5
2018-08-30T09:30:44.592Z,20.4
2018-08-30T09:31:45.986Z,20.4
2018-08-30T09:32:47.368Z,20.4
2018-08-30T09:33:48.796Z,20.4
2018-08-30T09:34:50.255Z,20.3
2018-08-30T09:35:51.625Z,20.2
2018-08-30T09:36:53.012Z,20.3
2018-08-30T09:37:54.417Z,20.3
2018-08-30T09:38:55.785Z,20.3
2018-08-30T09:39:57.175Z,20.3
2018-08-30T09:40:58.545Z,20.2
2018-08-30T09:41:59.919Z,20.2
2018-08-30T09:43:01.300Z,20.2
2018-08-30T09:44:03.402Z,20.2
2018-08-30T09:45:04.800Z,20.2
2018-08-30T09:46:06.193Z,20.1
2018-08-30T09:47:07.564Z,20.1
2018-08-30T09:48:08.934Z,20.1
2018-08-30T09:49:10.314Z,20.0
2018-08-30T09:50:11.674Z,20.0
2018-08-30T09:51:13.049Z,20.0
2018-08-30T09:52:14.421Z,19.9
2018-08-30T09:53:15.805Z,19.9
2018-08-30T09:54:17.848Z,19.8
2018-08-30T09:55:19.214Z,19.9
2018-08-30T09:56:20.594Z,19.8
2018-08-30T09:57:22.126Z,19.8
2018-08-30T09:58:23.296Z,19.7
2018-08-30T09:59:24.660Z,19.7
2018-08-30T10:00:26.034Z,19.7
2018-08-30T10:01:27.408Z,19.6
2018-08-30T10:02:28.778Z,19.6
2018-08-30T10:03:30.145Z,19.7
2018-08-30T10:04:31.560Z,19.6
2018-08-30T10:05:32.904Z,19.7
2018-08-30T10:06:34.325Z,19.6
2018-08-30T10:07:35.695Z,19.6
2018-08-30T10:08:37.068Z,19.6
2018-08-30T10:09:38.441Z,19.6
2018-08-30T10:10:39.814Z,19.6
2018-08-30T10:11:41.189Z,19.6
2018-08-30T10:12:42.578Z,19.7
2018-08-30T10:13:43.948Z,19.6
2018-08-30T10:14:45.321Z,19.6
2018-08-30T10:15:46.761Z,19.6
2018-08-30T10:16:48.080Z,19.6
2018-08-30T10:17:49.440Z,19.6
2018-08-30T10:18:50.818Z,19.6
2018-08-30T10:19:52.199Z,19.6
2018-08-30T10:20:53.576Z,19.6
2018-08-30T10:21:54.939Z,19.6
2018-08-30T10:22:56.319Z,19.7
2018-08-30T10:23:57.682Z,19.7
2018-08-30T10:24:59.053Z,19.7
2018-08-30T10:26:00.425Z,19.8
2018-08-30T10:27:01.797Z,19.8
2018-08-30T10:28:03.167Z,19.9
2018-08-30T10:29:04.706Z,20.0
2018-08-30T10:30:06.086Z,19.9
2018-08-30T10:31:07.452Z,20.0
2018-08-30T10:32:08.825Z,20.0
2018-08-30T10:33:10.204Z,20.1
2018-08-30T10:34:11.580Z,20.1
2018-08-30T10:35:12.945Z,20.2
2018-08-30T10:36:14.327Z,20.2
2018-08-30T10:37:15.697Z,20.3
2018-08-30T10:38:17.084Z,20.3
2018-08-30T10:39:18.489Z,20.3
2018-08-30T10:40:19.874Z,20.3
2018-08-30T10:41:21.317Z,20.4
2018-08-30T10:42:22.696Z,20.4
2018-08-30T10:43:24.065Z,20.5
2018-08-30T10:44:25.456Z,20.6
2018-08-30T10:45:26.830Z,20.7
2018-08-30T10:46:28.214Z,20.6
2018-08-30T10:47:29.591Z,20.7
2018-08-30T10:48:30.974Z,20.7
2018-08-30T10:49:32.449Z,20.8
2018-08-30T10:50:33.715Z,20.9
2018-08-30T10:51:35.110Z,21.0
2018-08-30T10:52:36.479Z,21.1
2018-08-30T10:53:37.866Z,21.3
2018-08-30T10:54:39.250Z,21.4
2018-08-30T10:55:40.635Z,21.6
2018-08-30T10:56:42.022Z,21.7
2018-08-30T10:57:43.402Z,21.8
2018-08-30T10:58:44.785Z,21.8
2018-08-30T10:59:46.206Z,21.9
2018-08-30T11:00:47.597Z,22.1
2018-08-30T11:01:49.668Z,22.2
2018-08-30T11:02:51.066Z,22.3
2018-08-30T11:03:52.513Z,22.4
2018-08-30T11:04:53.866Z,22.5
2018-08-30T11:05:55.256Z,22.5
2018-08-30T11:06:56.657Z,22.5
2018-08-30T11:07:58.049Z,22.5
2018-08-30T11:08:59.427Z,22.5
2018-08-30T11:10:00.842Z,22.5
2018-08-30T11:11:02.842Z,22.5
2018-08-30T11:12:04.240Z,22.5
2018-08-30T11:13:05.695Z,22.5
2018-08-30T11:14:06.957Z,22.5
2018-08-30T11:15:08.355Z,22.5
2018-08-30T11:16:09.740Z,22.3
2018-08-30T11:17:11.115Z,22.4
2018-08-30T11:18:12.492Z,22.2
2018-08-30T11:19:13.909Z,22.1
2018-08-30T11:20:15.255Z,22.1
2018-08-30T11:21:16.622Z,22.1
2018-08-30T11:22:18.011Z,22.1
2018-08-30T11:23:19.408Z,21.9
2018-08-30T11:24:20.787Z,22.0
2018-08-30T11:25:22.170Z,22.0
2018-08-30T11:26:23.562Z,21.9
2018-08-30T11:27:24.951Z,22.0
2018-08-30T11:28:26.319Z,21.8
2018-08-30T11:29:27.721Z,22.0
2018-08-30T11:30:29.086Z,22.0
2018-08-30T11:31:30.482Z,21.9
2018-08-30T11:32:31.860Z,21.8
2018-08-30T11:33:33.247Z,21.8
2018-08-30T11:34:34.691Z,21.8
2018-08-30T11:35:36.080Z,21.9
2018-08-30T11:36:37.453Z,21.9
2018-08-30T11:37:38.840Z,21.9
2018-08-30T11:38:40.222Z,22.0
2018-08-30T11:39:41.657Z,21.9
2018-08-30T11:40:43.055Z,22.0
2018-08-30T11:41:44.482Z,22.0
2018-08-30T11:42:45.858Z,22.0
2018-08-30T11:43:47.233Z,22.1
2018-08-30T11:44:48.578Z,22.1
2018-08-30T11:45:49.958Z,22.1
2018-08-30T11:46:51.376Z,22.1
2018-08-30T11:47:52.751Z,22.1
2018-08-30T11:48:54.138Z,22.2
2018-08-30T11:49:55.502Z,22.1
2018-08-30T11:50:56.877Z,22.0
2018-08-30T11:51:58.263Z,22.2
2018-08-30T11:52:59.640Z,22.1
2018-08-30T11:54:01.010Z,22.2
2018-08-30T11:55:02.437Z,22.1
2018-08-30T11:56:03.803Z,22.1
2018-08-30T11:57:05.187Z,22.1
2018-08-30T11:58:06.559Z,22.1
2018-08-30T11:59:07.938Z,22.1
2018-08-30T12:00:09.310Z,22.0
2018-08-30T12:01:10.685Z,22.1
2018-08-30T12:02:12.071Z,22.3
2018-08-30T12:03:13.455Z,22.4
2018-08-30T12:04:14.841Z,22.5
2018-08-30T12:05:16.235Z,22.5
2018-08-30T12:06:17.624Z,22.6
2018-08-30T12:07:19.003Z,22.6
2018-08-30T12:08:20.435Z,22.6
2018-08-30T12:09:21.722Z,22.8
2018-08-30T12:10:23.157Z,22.8
2018-08-30T12:11:24.554Z,23.0
2018-08-30T12:12:25.881Z,23.0
2018-08-30T12:13:27.270Z,23.0
2018-08-30T12:14:28.648Z,23.1
2018-08-30T12:15:30.049Z,23.1
2018-08-30T12:16:31.428Z,23.1
2018-08-30T12:17:32.910Z,23.1
2018-08-30T12:18:34.293Z,23.1
2018-08-30T12:19:35.671Z,23.0
2018-08-30T12:20:37.137Z,23.0
2018-08-30T12:21:38.441Z,23.0
2018-08-30T12:22:39.831Z,23.0
2018-08-30T12:23:41.216Z,23.0
2018-08-30T12:24:42.626Z,22.9
2018-08-30T12:25:44.021Z,22.9
2018-08-30T12:26:45.596Z,22.9
2018-08-30T12:27:47.014Z,22.8
2018-08-30T12:28:48.493Z,22.9
2018-08-30T12:29:49.768Z,22.9
2018-08-30T12:30:51.146Z,22.8
2018-08-30T12:31:52.550Z,22.7
2018-08-30T12:32:54.115Z,22.7
2018-08-30T12:33:55.478Z,22.8
2018-08-30T12:34:56.769Z,22.8
2018-08-30T12:35:58.266Z,22.8
2018-08-30T12:36:59.482Z,23.0
2018-08-30T12:38:00.854Z,23.0
2018-08-30T12:39:02.268Z,22.9
2018-08-30T12:40:03.751Z,22.9
2018-08-30T12:41:05.126Z,22.9
2018-08-30T12:42:06.522Z,22.9
2018-08-30T12:43:07.867Z,23.1
2018-08-30T12:44:09.211Z,23.2
2018-08-30T12:45:10.623Z,23.2
2018-08-30T12:46:11.979Z,23.1
2018-08-30T12:47:13.373Z,23.1
2018-08-30T12:48:14.772Z,23.1
2018-08-30T12:49:16.139Z,23.1
2018-08-30T12:50:17.627Z,23.1
2018-08-30T12:51:19.047Z,23.1
2018-08-30T12:52:20.339Z,23.1
2018-08-30T12:53:21.796Z,23.1
2018-08-30T12:54:23.119Z,23.1
2018-08-30T12:55:24.467Z,23.1
2018-08-30T12:56:25.749Z,23.1
2018-08-30T12:57:27.189Z,23.2
2018-08-30T12:58:28.632Z,23.2
2018-08-30T12:59:29.970Z,23.1
2018-08-30T13:00:31.282Z,23.0
2018-08-30T13:01:32.711Z,22.9
2018-08-30T13:02:34.206Z,23.1
2018-08-30T13:03:35.549Z,23.0
2018-08-30T13:04:37.029Z,23.1
2018-08-30T13:05:38.370Z,23.1
2018-08-30T13:06:39.579Z,23.1
2018-08-30T13:07:41.019Z,23.2
2018-08-30T13:08:42.643Z,23.2
2018-08-30T13:09:43.917Z,23.2
2018-08-30T13:10:45.370Z,23.1
2018-08-30T13:12:13.770Z,23.2
2018-08-30T13:13:15.041Z,23.2
2018-08-30T13:14:16.724Z,23.2
2018-08-30T13:15:18.190Z,23.1
2018-08-30T13:16:19.365Z,23.3
2018-08-30T13:17:20.789Z,23.3
2018-08-30T13:18:22.211Z,23.3
2018-08-30T13:19:23.634Z,23.3
2018-08-30T13:20:24.896Z,23.3
2018-08-30T13:21:26.291Z,23.4
2018-08-30T13:22:27.655Z,23.3
2018-08-30T13:23:29.050Z,23.2
2018-08-30T13:24:30.568Z,23.3
2018-08-30T13:25:31.786Z,23.2
2018-08-30T13:26:33.184Z,23.2
2018-08-30T13:27:34.563Z,23.1
2018-08-30T13:28:36.062Z,23.1
2018-08-30T13:29:37.345Z,23.1
2018-08-30T13:30:38.852Z,23.0
2018-08-30T13:31:40.312Z,22.9
2018-08-30T13:32:42.263Z,22.8
2018-08-30T13:34:00.502Z,22.8
2018-08-30T13:35:02.387Z,22.8
2018-08-30T13:36:03.515Z,22.6
2018-08-30T13:37:04.838Z,22.7
2018-08-30T13:38:06.338Z,22.7
2018-08-30T13:39:07.446Z,22.6
2018-08-30T13:40:09.092Z,22.7
2018-08-30T13:41:10.345Z,22.7
2018-08-30T13:42:11.765Z,22.6
2018-08-30T13:43:13.012Z,22.6
2018-08-30T13:44:14.497Z,22.6